Time;durP1;ratioP1;P1;durP2;ratioP2;P2;SDS_P1;SDS_P2;PMS_P1;PMS_P2;Temp;Humidity;BMP_temperature;BMP_pressure;BME280_temperature;BME280_humidity;BME280_pressure;Samples;Min_cycle;Max_cycle;Signal;HPM_P1;HPM_P2
2022/07/25 00:02:20;;;;;;;21.35;10.38;;;;;;;26.12;40.92;99147.53;5076798;28;20036;-78
2022/07/25 00:04:46;;;;;;;63.65;11.82;;;;;;;26.31;39.96;99134.34;5079082;28;20043;-78
2022/07/25 00:07:11;;;;;;;18.00;9.93;;;;;;;26.34;40.14;99149.84;5094657;28;20039;-78
2022/07/25 00:09:37;;;;;;;23.67;11.52;;;;;;;26.26;40.37;99149.25;5115486;28;20031;-78
2022/07/25 00:12:02;;;;;;;37.40;12.05;;;;;;;26.34;41.13;99184.25;5095037;28;20042;-77
2022/07/25 00:14:28;;;;;;;13.73;10.98;;;;;;;26.21;41.24;99167.81;5113143;28;20027;-77
2022/07/25 00:16:53;;;;;;;15.25;11.30;;;;;;;26.21;41.52;99182.13;5113639;28;20406;-79
2022/07/25 00:19:19;;;;;;;14.07;11.88;;;;;;;26.18;42.04;99182.19;5112568;28;20088;-78
2022/07/25 00:21:44;;;;;;;20.73;12.15;;;;;;;26.13;42.08;99194.19;5093596;28;20035;-78
2022/07/25 00:24:10;;;;;;;16.73;11.70;;;;;;;26.06;42.33;99193.13;5093147;28;20051;-78
2022/07/25 00:26:35;;;;;;;13.07;11.85;;;;;;;26.15;42.30;99189.63;5109250;28;20019;-79
2022/07/25 00:29:01;;;;;;;17.30;12.27;;;;;;;26.11;41.93;99182.38;5112415;27;20036;-78
2022/07/25 00:31:26;;;;;;;14.43;11.93;;;;;;;26.14;41.90;99192.94;5113164;28;20030;-78
2022/07/25 00:33:52;;;;;;;15.38;12.07;;;;;;;26.13;41.72;99197.84;5111129;27;20023;-77
2022/07/25 00:36:18;;;;;;;17.70;10.55;;;;;;;26.19;41.47;99210.44;5076802;28;20486;-77
2022/07/25 00:38:44;;;;;;;11.82;10.63;;;;;;;26.24;41.33;99202.53;5093629;28;20027;-78
2022/07/25 00:41:09;;;;;;;11.20;9.98;;;;;;;26.21;41.41;99205.06;5093925;28;20057;-78
2022/07/25 00:43:35;;;;;;;13.75;10.07;;;;;;;26.35;40.58;99205.94;5112387;28;20102;-77
2022/07/25 00:46:01;;;;;;;11.27;10.13;;;;;;;26.42;40.69;99208.59;5093891;28;20015;-78
2022/07/25 00:48:27;;;;;;;10.82;9.70;;;;;;;26.43;40.65;99218.00;5093874;28;20038;-78
2022/07/25 00:50:54;;;;;;;11.20;10.20;;;;;;;26.40;40.74;99216.84;5091210;28;20015;-78
2022/07/25 00:53:20;;;;;;;13.02;10.57;;;;;;;26.45;41.07;99221.22;5128041;27;20031;-78
2022/07/25 00:55:46;;;;;;;12.10;10.30;;;;;;;26.54;41.16;99229.16;5132568;27;20023;-78
2022/07/25 00:58:12;;;;;;;12.05;10.82;;;;;;;26.50;41.22;99217.81;5132728;27;20028;-77
2022/07/25 01:00:37;;;;;;;12.77;9.70;;;;;;;26.48;40.89;99226.03;5114365;27;20398;-77
2022/07/25 01:03:03;;;;;;;10.32;9.20;;;;;;;26.50;41.03;99229.28;5132675;27;20497;-78
2022/07/25 01:05:29;;;;;;;13.52;10.45;;;;;;;26.46;41.32;99223.66;5119089;27;20503;-78
2022/07/25 01:07:57;;;;;;;13.88;10.43;;;;;;;26.53;41.26;99222.66;5092814;28;20430;-78
2022/07/25 01:10:22;;;;;;;11.57;9.80;;;;;;;26.38;41.76;99218.56;5091508;28;20035;-78
2022/07/25 01:12:51;;;;;;;13.48;9.70;;;;;;;26.12;42.44;99222.03;5091749;28;20028;-78
2022/07/25 01:15:18;;;;;;;18.02;9.98;;;;;;;25.97;43.01;99220.78;5074119;28;20475;-79
2022/07/25 01:17:44;;;;;;;11.52;10.27;;;;;;;25.93;43.64;99207.34;5092289;28;20035;-78
2022/07/25 01:20:26;;;;;;;16.02;10.90;;;;;;;25.90;43.80;99213.97;5109475;28;20739;-78
2022/07/25 01:22:52;;;;;;;11.70;10.50;;;;;;;25.87;44.17;99214.06;5091782;28;20046;-78
2022/07/25 01:25:18;;;;;;;10.85;9.85;;;;;;;25.97;44.05;99212.19;5091915;28;20394;-79
2022/07/25 01:27:44;;;;;;;11.77;10.57;;;;;;;25.99;43.96;99206.81;5097318;28;20473;-78
2022/07/25 01:30:12;;;;;;;13.88;10.57;;;;;;;25.96;44.43;99219.19;5094030;28;20251;-79
2022/07/25 01:32:38;;;;;;;12.00;10.90;;;;;;;25.83;44.35;99208.44;5112310;28;20397;-79
2022/07/25 01:35:05;;;;;;;13.88;10.85;;;;;;;25.81;44.95;99213.78;5107382;28;20087;-79
2022/07/25 01:37:31;;;;;;;16.98;11.48;;;;;;;25.83;44.95;99205.56;5091320;28;20024;-78
2022/07/25 01:39:57;;;;;;;12.60;10.95;;;;;;;25.88;44.80;99207.91;5092017;28;20425;-78
2022/07/25 01:42:22;;;;;;;13.07;11.50;;;;;;;25.97;44.28;99190.06;5073260;28;20493;-78
2022/07/25 01:44:48;;;;;;;12.18;10.82;;;;;;;26.12;44.83;99210.56;5091335;28;20054;-78
2022/07/25 01:47:15;;;;;;;12.07;10.88;;;;;;;25.94;44.80;99208.16;5091619;28;20097;-78
2022/07/25 01:49:41;;;;;;;13.82;10.65;;;;;;;26.01;43.79;99208.00;5079081;28;20413;-78
2022/07/25 01:52:07;;;;;;;11.20;10.13;;;;;;;26.25;43.57;99207.00;5102514;28;20039;-78
2022/07/25 01:54:32;;;;;;;11.73;10.43;;;;;;;26.23;43.99;99203.78;5096139;28;20031;-78
2022/07/25 01:56:58;;;;;;;12.10;10.52;;;;;;;26.18;44.13;99194.47;5095028;28;20031;-78
2022/07/25 01:59:23;;;;;;;11.85;10.65;;;;;;;25.97;44.73;99180.69;5094781;28;20062;-78
2022/07/25 02:01:49;;;;;;;14.77;11.40;;;;;;;25.93;44.80;99164.38;5095269;28;20350;-78
2022/07/25 02:04:14;;;;;;;13.05;11.43;;;;;;;25.93;44.98;99170.09;5094712;28;20056;-78
2022/07/25 02:06:43;;;;;;;14.25;11.60;;;;;;;26.19;44.28;99167.44;5110275;28;20038;-78
2022/07/25 02:09:09;;;;;;;19.88;17.95;;;;;;;26.14;44.51;99161.44;5094746;28;20024;-78
2022/07/25 02:11:35;;;;;;;12.77;10.50;;;;;;;26.08;44.43;99152.56;5110636;27;20093;-77
2022/07/25 02:14:01;;;;;;;12.40;11.00;;;;;;;26.11;44.62;99151.66;5115317;28;20107;-78
2022/07/25 02:16:26;;;;;;;11.95;10.88;;;;;;;26.20;44.65;99151.88;5115036;27;20098;-78
2022/07/25 02:18:52;;;;;;;17.67;11.68;;;;;;;25.86;45.95;99160.91;5114333;28;20023;-78
2022/07/25 02:21:17;;;;;;;13.25;11.80;;;;;;;25.52;46.78;99168.69;5076966;28;20020;-78
2022/07/25 02:23:44;;;;;;;11.20;10.10;;;;;;;25.57;46.26;99164.47;5094744;28;20464;-78
2022/07/25 02:26:10;;;;;;;21.67;12.43;;;;;;;25.81;45.88;99139.31;5076139;28;20031;-78
2022/07/25 02:28:35;;;;;;;11.80;10.43;;;;;;;25.88;45.47;99133.41;5076131;28;20077;-78
2022/07/25 02:31:01;;;;;;;10.68;9.57;;;;;;;25.87;45.97;99142.44;5094116;28;20112;-78
2022/07/25 02:33:26;;;;;;;10.38;9.30;;;;;;;25.93;45.71;99140.66;5109879;28;20047;-78
2022/07/25 02:35:52;;;;;;;10.90;9.80;;;;;;;25.71;45.78;99134.69;5113059;28;20474;-78
2022/07/25 02:38:20;;;;;;;10.77;9.50;;;;;;;25.62;46.32;99133.25;5114594;28;20110;-78
2022/07/25 02:40:50;;;;;;;12.98;10.27;;;;;;;25.68;46.40;99136.38;5114360;28;20027;-78
2022/07/25 02:43:17;;;;;;;11.27;10.05;;;;;;;25.73;46.68;99129.31;5114235;27;20027;-78
2022/07/25 02:45:43;;;;;;;11.00;9.38;;;;;;;25.75;46.72;99146.84;5096024;28;20414;-78
2022/07/25 02:48:08;;;;;;;12.57;10.85;;;;;;;25.71;47.07;99137.56;5114340;28;20035;-78
2022/07/25 02:50:34;;;;;;;10.45;9.45;;;;;;;25.67;47.13;99140.50;5103783;27;20028;-77
2022/07/25 02:53:00;;;;;;;12.32;9.68;;;;;;;25.77;46.64;99135.75;5104196;28;20092;-78
2022/07/25 02:55:25;;;;;;;10.30;9.40;;;;;;;25.78;47.28;99151.69;5112796;28;20023;-78
2022/07/25 02:57:51;;;;;;;12.43;10.88;;;;;;;25.75;46.68;99138.28;5114185;28;20027;-78
2022/07/25 03:00:17;;;;;;;13.52;11.52;;;;;;;25.35;48.19;99162.91;5086553;28;20031;-79
2022/07/25 03:02:43;;;;;;;19.17;11.65;;;;;;;25.22;48.29;99156.28;5107307;27;20114;-78
2022/07/25 03:05:11;;;;;;;13.80;12.00;;;;;;;25.24;48.04;99170.94;5110264;27;20054;-79
2022/07/25 03:07:38;;;;;;;13.48;12.07;;;;;;;24.85;49.02;99169.72;5117194;28;20031;-78
2022/07/25 03:10:06;;;;;;;20.90;13.77;;;;;;;24.58;50.17;99164.94;5112989;27;20046;-77
2022/07/25 03:12:32;;;;;;;14.35;12.40;;;;;;;24.52;50.21;99171.16;5095507;28;20039;-76
2022/07/25 03:14:58;;;;;;;15.20;12.80;;;;;;;24.72;49.86;99181.78;5104578;28;20473;-73
2022/07/25 03:17:24;;;;;;;15.38;12.65;;;;;;;24.78;49.67;99174.34;5109014;28;20125;-75
2022/07/25 03:19:50;;;;;;;19.40;12.57;;;;;;;24.78;49.88;99167.81;5073970;28;20529;-75
2022/07/25 03:22:15;;;;;;;16.67;12.30;;;;;;;24.90;49.44;99181.44;5093036;28;20024;-75
2022/07/25 03:24:41;;;;;;;17.45;12.15;;;;;;;24.84;49.42;99174.66;5093213;28;20056;-76
2022/07/25 03:27:06;;;;;;;18.10;12.48;;;;;;;24.92;49.50;99166.72;5093885;28;20395;-74
2022/07/25 03:29:32;;;;;;;13.00;11.68;;;;;;;24.81;49.27;99179.19;5094591;28;20387;-75
2022/07/25 03:31:58;;;;;;;17.23;12.23;;;;;;;24.93;48.93;99174.03;5113534;28;20050;-77
2022/07/25 03:34:24;;;;;;;16.42;12.25;;;;;;;24.98;49.17;99164.97;5108325;27;20766;-77
2022/07/25 03:36:49;;;;;;;21.42;12.50;;;;;;;25.25;48.48;99181.13;5111557;27;20039;-76
2022/07/25 03:39:15;;;;;;;18.42;13.02;;;;;;;25.29;47.96;99152.44;5113348;28;20028;-76
2022/07/25 03:41:41;;;;;;;14.38;12.40;;;;;;;25.30;48.32;99168.34;5094935;28;20024;-76
2022/07/25 03:44:07;;;;;;;13.60;11.52;;;;;;;25.43;47.69;99163.53;5099024;28;20404;-76
2022/07/25 03:46:33;;;;;;;23.15;13.55;;;;;;;25.43;47.63;99169.25;5092091;28;20044;-76
2022/07/25 03:48:58;;;;;;;21.98;12.88;;;;;;;25.41;47.59;99168.09;5105106;28;20072;-76
2022/07/25 03:51:24;;;;;;;32.95;13.05;;;;;;;25.41;47.90;99170.97;5083600;28;20108;-76
2022/07/25 03:54:01;;;;;;;16.98;11.55;;;;;;;25.43;47.84;99177.03;5102069;28;20493;-76
2022/07/25 03:56:37;;;;;;;20.05;12.07;;;;;;;25.69;46.99;99185.84;5083391;28;20107;-76
2022/07/25 03:59:07;;;;;;;16.30;12.30;;;;;;;25.80;46.92;99174.94;5113311;27;20092;-76
2022/07/25 04:01:33;;;;;;;;;;;;;;;25.79;46.49;99188.47;5093986;28;20089;-76
2022/07/25 04:03:59;;;;;;;29.02;12.57;;;;;;;25.80;46.47;99160.63;5094351;28;19916;-76
2022/07/25 04:06:25;;;;;;;18.38;11.73;;;;;;;25.82;46.39;99175.31;5112856;27;20020;-76
2022/07/25 04:08:51;;;;;;;17.88;12.07;;;;;;;25.76;46.72;99183.66;5112800;28;20548;-75
2022/07/25 04:11:16;;;;;;;19.45;11.88;;;;;;;25.89;46.41;99189.44;5094049;28;20409;-76
2022/07/25 04:13:42;;;;;;;18.90;13.10;;;;;;;25.83;46.58;99185.53;5092560;28;20028;-77
2022/07/25 04:16:08;;;;;;;12.88;11.05;;;;;;;25.87;46.49;99191.97;5099447;28;20068;-77
2022/07/25 04:18:34;;;;;;;15.82;12.07;;;;;;;25.81;47.02;99187.22;5097651;28;20037;-78
2022/07/25 04:21:01;;;;;;;16.25;12.20;;;;;;;25.88;47.16;99184.16;5085480;28;20611;-78
2022/07/25 04:23:27;;;;;;;16.33;11.30;;;;;;;25.86;46.85;99184.63;5073819;28;20506;-78
2022/07/25 04:25:53;;;;;;;19.50;12.57;;;;;;;25.87;47.34;99182.56;5091352;28;20016;-78
2022/07/25 04:28:18;;;;;;;21.40;12.18;;;;;;;26.01;46.78;99187.94;5072866;28;20031;-78
2022/07/25 04:30:44;;;;;;;17.05;12.70;;;;;;;26.12;46.55;99190.53;5091937;28;20057;-78
2022/07/25 04:33:11;;;;;;;15.15;10.55;;;;;;;25.96;47.03;99179.09;5091796;28;20031;-78
2022/07/25 04:35:36;;;;;;;14.90;11.93;;;;;;;25.78;47.31;99192.59;5109967;28;20414;-78
2022/07/25 04:38:02;;;;;;;12.68;11.38;;;;;;;25.78;47.69;99191.78;5112069;28;20020;-79
2022/07/25 04:40:27;;;;;;;18.33;12.15;;;;;;;25.87;47.99;99189.09;5099273;28;20095;-78
2022/07/25 04:42:53;;;;;;;18.00;12.23;;;;;;;26.01;47.79;99192.84;5091762;28;20245;-78
2022/07/25 04:45:19;;;;;;;21.25;13.20;;;;;;;25.99;48.20;99192.50;5094490;27;20034;-78
2022/07/25 04:47:44;;;;;;;19.55;12.85;;;;;;;25.89;48.42;99186.59;5115513;27;20020;-78
2022/07/25 04:50:10;;;;;;;18.73;12.35;;;;;;;26.01;48.50;99192.84;5112004;28;20026;-79
2022/07/25 04:52:36;;;;;;;27.33;12.88;;;;;;;25.71;49.59;99194.84;5111910;28;20026;-78
2022/07/25 04:55:02;;;;;;;19.27;11.77;;;;;;;25.81;49.21;99201.53;5097302;28;20023;-78
2022/07/25 04:57:28;;;;;;;18.00;12.38;;;;;;;25.83;49.65;99191.25;5108501;28;20026;-78
2022/07/25 04:59:55;;;;;;;13.98;12.60;;;;;;;25.86;49.46;99193.22;5090629;28;20020;-77
2022/07/25 05:02:20;;;;;;;14.77;12.50;;;;;;;25.90;49.26;99187.41;5091447;28;20024;-78
2022/07/25 05:04:46;;;;;;;15.23;12.30;;;;;;;25.78;49.64;99186.06;5091016;27;20535;-78
2022/07/25 05:07:11;;;;;;;17.67;12.68;;;;;;;25.85;49.59;99193.66;5091416;28;20049;-78
2022/07/25 05:09:37;;;;;;;15.32;12.80;;;;;;;25.79;49.86;99194.22;5096651;28;20067;-78
2022/07/25 05:12:03;;;;;;;17.15;12.18;;;;;;;25.59;50.16;99197.16;5075277;28;20051;-78
2022/07/25 05:14:28;;;;;;;16.08;12.30;;;;;;;25.75;49.71;99198.41;5091367;28;20024;-78
2022/07/25 05:16:54;;;;;;;33.88;14.40;;;;;;;25.89;50.49;99192.31;5105746;28;20486;-78
2022/07/25 05:19:19;;;;;;;20.40;13.40;;;;;;;25.99;50.00;99199.03;5111369;28;20027;-78
2022/07/25 05:21:45;;;;;;;24.58;13.90;;;;;;;25.89;49.63;99195.19;5104256;28;20015;-79
2022/07/25 05:24:10;;;;;;;23.15;13.70;;;;;;;25.88;49.72;99179.25;5113904;28;20418;-78
2022/07/25 05:26:36;;;;;;;24.40;13.23;;;;;;;25.90;49.23;99193.94;5108367;27;20040;-78
2022/07/25 05:29:01;;;;;;;21.15;14.30;;;;;;;25.88;49.25;99192.75;5114446;28;20386;-78
2022/07/25 05:31:26;;;;;;;23.77;14.40;;;;;;;25.89;49.72;99192.31;5095998;28;20539;-78
2022/07/25 05:33:52;;;;;;;22.88;13.35;;;;;;;25.86;49.74;99186.69;5089411;28;20039;-77
2022/07/25 05:36:17;;;;;;;17.60;13.65;;;;;;;25.98;49.82;99193.75;5090083;28;20024;-78
2022/07/25 05:38:43;;;;;;;23.27;13.68;;;;;;;25.81;49.91;99176.56;5094910;28;20491;-78
2022/07/25 05:41:08;;;;;;;17.98;13.32;;;;;;;25.88;49.96;99184.16;5094467;27;20371;-78
2022/07/25 05:43:34;;;;;;;18.77;13.52;;;;;;;25.99;50.35;99183.91;5094331;27;20024;-78
2022/07/25 05:46:01;;;;;;;26.42;13.60;;;;;;;26.00;50.41;99186.31;5099049;28;20054;-78
2022/07/25 05:48:26;;;;;;;23.60;13.18;;;;;;;26.08;50.47;99192.69;5090092;28;20020;-79
2022/07/25 05:50:52;;;;;;;20.63;14.10;;;;;;;25.98;50.13;99188.03;5097775;28;20470;-78
2022/07/25 05:53:17;;;;;;;28.10;13.32;;;;;;;25.99;50.60;99196.16;5097203;28;20020;-84
2022/07/25 05:55:43;;;;;;;26.13;13.60;;;;;;;26.12;50.59;99190.53;5101868;28;20039;-79
2022/07/25 05:58:08;;;;;;;19.10;13.50;;;;;;;26.15;50.73;99178.16;5096938;28;20035;-75
2022/07/25 06:00:34;;;;;;;18.92;13.15;;;;;;;26.18;50.30;99180.13;5117902;27;20103;-82
2022/07/25 06:03:02;;;;;;;19.58;13.60;;;;;;;26.10;50.43;99180.75;5091090;28;20027;-83
2022/07/25 06:05:28;;;;;;;20.38;14.38;;;;;;;26.10;50.49;99178.72;5107050;28;20051;-80
2022/07/25 06:07:53;;;;;;;24.70;13.63;;;;;;;26.28;50.40;99188.91;5092217;28;20028;-79
2022/07/25 06:10:19;;;;;;;21.40;14.07;;;;;;;26.40;49.81;99188.16;5114926;28;20027;-78
2022/07/25 06:12:45;;;;;;;17.38;12.25;;;;;;;26.35;49.80;99183.00;5085176;28;20032;-75
2022/07/25 06:15:10;;;;;;;19.45;14.35;;;;;;;26.41;49.44;99181.19;5103421;27;20452;-79
2022/07/25 06:17:36;;;;;;;18.90;12.70;;;;;;;26.40;49.39;99173.03;5089655;28;20026;-77
2022/07/25 06:20:03;;;;;;;22.17;13.95;;;;;;;26.43;49.47;99184.41;5096235;28;20110;-78
2022/07/25 06:22:29;;;;;;;65.68;16.30;;;;;;;26.25;49.50;99161.16;5092622;28;20036;-75
2022/07/25 06:24:55;;;;;;;19.05;12.25;;;;;;;26.39;49.51;99177.16;5112718;27;20030;-77
2022/07/25 06:27:20;;;;;;;17.15;12.73;;;;;;;26.51;48.92;99187.06;5102763;28;20487;-79
2022/07/25 06:29:46;;;;;;;19.92;13.30;;;;;;;26.57;49.04;99186.06;5089992;28;20024;-79
2022/07/25 06:32:11;;;;;;;20.27;13.65;;;;;;;26.66;48.73;99188.28;5126054;27;20494;-77
2022/07/25 06:34:37;;;;;;;13.57;12.25;;;;;;;26.69;49.24;99181.66;5077964;28;20108;-81
2022/07/25 06:37:03;;;;;;;19.20;13.32;;;;;;;26.73;48.76;99185.22;5091245;28;20023;-82
2022/07/25 06:39:28;;;;;;;27.45;13.65;;;;;;;26.87;49.21;99188.94;5087047;28;20114;-81
2022/07/25 06:41:54;;;;;;;18.30;13.13;;;;;;;26.92;48.66;99185.53;5096828;28;20342;-83
2022/07/25 06:44:20;;;;;;;22.42;13.95;;;;;;;27.02;48.33;99189.34;5096867;28;20554;-79
2022/07/25 06:46:45;;;;;;;15.52;12.68;;;;;;;27.01;47.79;99179.91;5101613;27;20027;-79
2022/07/25 06:49:11;;;;;;;17.67;12.18;;;;;;;26.97;48.13;99179.22;5095041;28;20024;-78
2022/07/25 06:51:36;;;;;;;13.70;12.48;;;;;;;26.97;47.63;99169.81;5081170;28;20375;-79
2022/07/25 06:54:02;;;;;;;17.90;12.05;;;;;;;27.09;47.67;99176.84;5083681;28;20413;-81
2022/07/25 06:56:30;;;;;;;17.98;11.98;;;;;;;27.17;47.55;99172.50;5077709;28;20518;-82
2022/07/25 06:58:56;;;;;;;82.72;17.15;;;;;;;27.17;47.26;99170.41;5084344;28;20478;-83
2022/07/25 07:01:22;;;;;;;32.35;12.77;;;;;;;27.39;46.12;99171.81;5077230;28;20085;-77
2022/07/25 07:03:48;;;;;;;14.00;11.52;;;;;;;27.53;46.34;99176.31;5093492;28;20418;-82
2022/07/25 07:06:13;;;;;;;17.27;12.20;;;;;;;27.72;45.76;99174.47;5125868;27;20394;-81
2022/07/25 07:08:39;;;;;;;19.13;11.90;;;;;;;27.84;44.61;99182.28;5110151;28;20103;-80
2022/07/25 07:11:06;;;;;;;16.67;10.68;;;;;;;28.08;44.50;99169.59;5114894;28;20019;-80
2022/07/25 07:13:32;;;;;;;13.75;10.85;;;;;;;28.16;43.15;99170.94;5088482;28;20066;-79
2022/07/25 07:15:57;;;;;;;15.32;11.15;;;;;;;28.25;43.32;99158.78;5113458;28;20024;-82
2022/07/25 07:18:23;;;;;;;20.42;11.50;;;;;;;28.44;43.29;99163.41;5127655;27;20092;-80
2022/07/25 07:20:49;;;;;;;11.60;10.50;;;;;;;28.56;42.49;99158.06;5129138;27;20027;-82
2022/07/25 07:23:14;;;;;;;19.00;11.32;;;;;;;28.68;42.02;99162.97;5094228;28;20023;-82
2022/07/25 07:25:40;;;;;;;20.08;10.90;;;;;;;28.81;42.03;99150.56;5093608;28;20040;-82
2022/07/25 07:28:06;;;;;;;12.80;11.30;;;;;;;28.80;41.49;99167.06;5093074;28;20091;-81
2022/07/25 07:30:32;;;;;;;14.95;10.48;;;;;;;28.74;41.63;99137.25;5085247;28;20418;-81
2022/07/25 07:32:58;;;;;;;12.07;10.18;;;;;;;28.97;41.53;99159.03;5089219;28;20112;-82
2022/07/25 07:35:24;;;;;;;30.98;11.40;;;;;;;28.79;40.98;99128.03;5077583;28;20024;-80
2022/07/25 07:37:51;;;;;;;34.38;11.63;;;;;;;28.99;40.59;99162.25;5094100;28;20487;-81
2022/07/25 07:40:16;;;;;;;25.88;11.55;;;;;;;29.06;41.20;99143.91;5095945;28;20035;-83
2022/07/25 07:42:48;;;;;;;13.25;11.05;;;;;;;29.09;41.13;99153.69;5111118;27;20055;-82
2022/07/25 07:45:14;;;;;;;11.73;10.63;;;;;;;29.10;40.16;99155.28;5085826;28;20054;-79
2022/07/25 07:47:40;;;;;;;21.17;11.00;;;;;;;29.36;39.35;99150.09;5099866;28;20449;-76
2022/07/25 07:50:06;;;;;;;14.40;10.80;;;;;;;29.49;39.66;99152.09;5095009;28;20052;-83
2022/07/25 07:52:33;;;;;;;12.82;10.90;;;;;;;29.38;39.96;99155.41;5077783;28;20020;-83
2022/07/25 07:57:43;;;;;;;16.80;10.50;;;;;;;29.95;39.66;99137.06;5101043;28;20038;-82
2022/07/25 08:00:10;;;;;;;14.65;11.05;;;;;;;29.80;37.82;99142.63;5083201;28;20154;-76
2022/07/25 08:02:45;;;;;;;48.33;12.65;;;;;;;29.64;38.29;99146.56;5092506;28;20031;-78
2022/07/25 08:05:12;;;;;;;14.65;10.25;;;;;;;29.75;38.21;99143.25;5080605;28;20211;-77
2022/07/25 08:07:37;;;;;;;13.38;11.10;;;;;;;30.18;38.44;99149.28;5098830;27;20034;-77
2022/07/25 08:10:03;;;;;;;24.67;11.70;;;;;;;30.11;38.48;99136.78;5098749;28;20031;-77
2022/07/25 08:12:29;;;;;;;12.73;10.27;;;;;;;30.48;37.41;99138.06;5090195;28;20054;-77
2022/07/25 08:14:54;;;;;;;15.73;10.25;;;;;;;30.38;37.26;99137.28;5074361;28;20028;-77
2022/07/25 08:17:22;;;;;;;11.80;9.70;;;;;;;30.28;36.68;99133.56;5089924;28;20027;-77
2022/07/25 08:19:48;;;;;;;19.10;10.02;;;;;;;30.64;36.81;99139.84;5088851;28;20019;-77
2022/07/25 08:22:13;;;;;;;14.77;10.20;;;;;;;30.85;35.92;99143.81;5098740;28;20050;-78
2022/07/25 08:24:39;;;;;;;13.30;9.00;;;;;;;31.10;33.91;99145.53;5092992;28;20157;-76
2022/07/25 08:27:05;;;;;;;10.40;9.40;;;;;;;30.91;32.87;99146.84;5086403;28;20043;-76
2022/07/25 08:29:30;;;;;;;9.85;8.70;;;;;;;30.62;33.56;99130.84;5090066;28;20040;-73
2022/07/25 08:31:56;;;;;;;12.00;9.27;;;;;;;31.02;34.03;99126.16;5095895;28;20027;-73
2022/07/25 08:34:22;;;;;;;10.82;7.38;;;;;;;31.15;31.48;99129.63;5096916;28;20478;-74
2022/07/25 08:36:48;;;;;;;18.13;8.18;;;;;;;31.41;31.33;99137.91;5125844;27;20019;-82
2022/07/25 08:39:14;;;;;;;10.82;7.90;;;;;;;31.49;31.06;99132.56;5109108;28;20019;-75
2022/07/25 08:41:40;;;;;;;14.23;7.72;;;;;;;31.86;31.24;99138.19;5103282;28;20024;-76
2022/07/25 08:44:07;;;;;;;12.68;8.93;;;;;;;32.14;30.79;99126.41;5091938;28;20058;-76
2022/07/25 08:46:33;;;;;;;13.98;8.80;;;;;;;32.31;31.02;99132.53;5106061;28;20027;-75
2022/07/25 08:48:59;;;;;;;13.70;8.38;;;;;;;32.46;31.09;99128.91;5117752;27;20494;-80
2022/07/25 08:51:25;;;;;;;24.83;9.85;;;;;;;32.60;30.24;99122.38;5117643;27;20067;-77
2022/07/25 08:53:52;;;;;;;27.15;13.18;;;;;;;32.66;29.79;99122.47;5087479;28;20113;-78
2022/07/25 08:56:17;;;;;;;13.10;9.05;;;;;;;32.28;30.86;99115.38;5107368;28;20026;-83
2022/07/25 08:58:43;;;;;;;14.07;8.52;;;;;;;32.57;30.52;99111.00;5092147;28;20562;-76
2022/07/25 09:01:08;;;;;;;11.30;8.25;;;;;;;32.68;30.58;99121.97;5115522;27;20076;-75
2022/07/25 09:03:35;;;;;;;10.90;9.38;;;;;;;32.66;30.54;99099.31;5117454;27;20458;-77
2022/07/25 09:06:00;;;;;;;9.13;7.85;;;;;;;32.89;29.09;99105.53;5071725;28;20051;-73
2022/07/25 09:08:26;;;;;;;10.60;8.32;;;;;;;32.73;29.63;99107.59;5091975;28;20056;-76
2022/07/25 09:10:54;;;;;;;11.18;8.43;;;;;;;32.64;29.40;99107.69;5119964;27;20035;-78
2022/07/25 09:13:22;;;;;;;16.43;9.07;;;;;;;32.80;28.63;99100.59;5105173;28;20063;-77
2022/07/25 09:15:49;;;;;;;10.30;7.82;;;;;;;33.16;28.09;99095.72;5090051;28;20032;-77
2022/07/25 09:18:18;;;;;;;12.18;9.52;;;;;;;33.30;28.13;99094.09;5088435;28;20110;-83
2022/07/25 09:20:54;;;;;;;8.48;7.68;;;;;;;33.39;28.14;99098.97;5101259;28;20386;-81
2022/07/25 09:23:27;;;;;;;8.95;7.82;;;;;;;33.37;28.21;99092.09;5095320;28;20038;-76
2022/07/25 09:26:01;;;;;;;9.65;6.63;;;;;;;32.87;26.96;99097.31;5082589;28;20020;-79
2022/07/25 09:28:26;;;;;;;9.93;7.20;;;;;;;32.75;26.79;99083.94;5117664;28;20123;-80
2022/07/25 09:31:00;;;;;;;8.70;7.03;;;;;;;33.01;25.91;99081.28;5085251;28;20119;-81
2022/07/25 09:33:27;;;;;;;17.23;8.05;;;;;;;33.52;27.24;99075.50;5097124;28;20024;-81
2022/07/25 09:35:54;;;;;;;12.07;7.78;;;;;;;33.80;27.01;99077.97;5076543;28;20482;-82
2022/07/25 09:38:21;;;;;;;9.75;6.38;;;;;;;33.98;26.96;99076.91;5099085;28;20039;-82
2022/07/25 09:41:01;;;;;;;13.90;7.63;;;;;;;34.23;25.69;99086.19;5092108;28;20386;-81
2022/07/25 09:43:41;;;;;;;8.30;7.50;;;;;;;34.13;24.76;99076.03;5097866;28;20031;-81
2022/07/25 09:46:07;;;;;;;8.32;6.70;;;;;;;34.43;25.31;99078.75;5104937;28;20035;-81
2022/07/25 09:48:38;;;;;;;8.32;7.10;;;;;;;34.60;24.53;99069.44;5101574;28;20513;-81
2022/07/25 09:51:05;;;;;;;10.90;7.43;;;;;;;34.36;25.16;99070.50;5094322;28;20363;-80
2022/07/25 09:53:32;;;;;;;8.07;6.90;;;;;;;33.64;26.11;99082.25;5091342;28;20461;-81
2022/07/25 09:55:58;;;;;;;13.25;7.50;;;;;;;33.79;25.60;99081.38;5073660;28;20071;-81
2022/07/25 09:58:25;;;;;;;7.53;6.78;;;;;;;33.67;25.17;99057.25;5080886;28;20028;-81
2022/07/25 10:00:55;;;;;;;7.88;7.07;;;;;;;33.72;26.35;99068.09;5096236;28;20032;-82
2022/07/25 10:03:29;;;;;;;;;;;;;;;33.17;26.05;99064.66;5091407;28;20032;-80
2022/07/25 10:06:13;;;;;;;12.20;7.68;;;;;;;33.60;27.06;99067.16;5106147;28;20366;-80
2022/07/25 10:08:40;;;;;;;7.63;6.93;;;;;;;34.04;25.82;99053.00;5127270;28;20023;-80
2022/07/25 10:11:21;;;;;;;10.18;7.28;;;;;;;34.55;25.61;99060.19;5115167;27;20096;-79
2022/07/25 10:13:47;;;;;;;13.52;7.05;;;;;;;34.82;25.43;99049.34;5105829;28;20023;-79
2022/07/25 10:16:16;;;;;;;7.85;7.22;;;;;;;34.69;24.51;99061.38;5117974;27;20023;-81
2022/07/25 10:18:48;;;;;;;37.13;9.85;;;;;;;34.18;25.49;99055.00;5110051;27;20027;-81
2022/07/25 10:21:14;;;;;;;11.23;6.75;;;;;;;34.15;25.27;99050.22;5099176;28;20106;-81
2022/07/25 10:23:39;;;;;;;7.97;7.05;;;;;;;34.52;25.50;99038.00;5098830;27;20549;-80
2022/07/25 10:26:14;;;;;;;7.70;6.97;;;;;;;34.62;24.73;99037.78;5110024;28;20456;-81
2022/07/25 10:28:46;;;;;;;7.57;6.82;;;;;;;34.37;25.21;99034.34;5118801;27;20042;-81
2022/07/25 10:31:22;;;;;;;7.57;6.75;;;;;;;34.05;25.33;99043.00;5111112;27;20038;-81
2022/07/25 10:33:51;;;;;;;12.95;7.57;;;;;;;33.87;26.27;99041.94;5095071;28;20058;-79
2022/07/25 10:36:17;;;;;;;8.38;7.57;;;;;;;33.87;26.07;99033.25;5094819;28;20028;-84
2022/07/25 10:38:45;;;;;;;9.35;7.13;;;;;;;34.00;25.80;99030.03;5100254;27;20493;-81
2022/07/25 10:41:15;;;;;;;10.00;7.72;;;;;;;33.41;26.91;99041.31;5107479;27;20122;-76
2022/07/25 10:43:44;;;;;;;8.07;7.25;;;;;;;33.65;26.68;99030.88;5095617;27;20020;-82
2022/07/25 10:46:16;;;;;;;12.60;8.30;;;;;;;33.80;27.14;99025.78;5102522;27;20015;-80
2022/07/25 10:48:42;;;;;;;8.13;7.18;;;;;;;34.17;25.67;99036.03;5103110;28;20093;-82
2022/07/25 10:51:10;;;;;;;6.93;6.32;;;;;;;34.37;25.62;99026.47;5080842;28;20024;-80
2022/07/25 10:53:43;;;;;;;8.75;6.70;;;;;;;34.41;24.81;99026.25;5081828;28;20074;-87
2022/07/25 10:56:15;;;;;;;10.85;7.25;;;;;;;34.75;25.24;99022.88;5126431;27;20028;-88
2022/07/25 10:58:45;;;;;;;8.15;7.35;;;;;;;34.29;24.98;99023.22;5119867;27;20032;-86
2022/07/25 11:01:12;;;;;;;11.27;7.15;;;;;;;34.63;25.06;99022.78;5079988;28;20028;-89
2022/07/25 11:03:39;;;;;;;9.63;7.50;;;;;;;34.83;25.01;99027.69;5112437;28;20027;-90
2022/07/25 11:06:05;;;;;;;8.15;7.35;;;;;;;34.76;24.80;99019.47;5128607;27;20394;-88
2022/07/25 11:08:34;;;;;;;7.82;7.10;;;;;;;34.69;24.55;99022.81;5103749;28;20085;-90
2022/07/25 11:11:00;;;;;;;;;;;;;;;34.99;24.05;99016.72;5087403;28;20074;-88
2022/07/25 11:13:25;;;;;;;8.25;7.45;;;;;;;34.47;23.97;99017.59;5077632;28;19947;-88
2022/07/25 11:15:56;;;;;;;8.75;6.80;;;;;;;35.16;24.61;99001.56;5086591;28;20075;-87
2022/07/25 11:18:37;;;;;;;11.07;7.55;;;;;;;35.71;23.79;99005.31;5093188;28;20039;-83
2022/07/25 11:21:06;;;;;;;7.82;7.15;;;;;;;35.60;23.05;98997.34;5080540;27;20023;-85
2022/07/25 11:23:32;;;;;;;9.18;8.27;;;;;;;35.25;22.77;98992.66;5115728;27;20045;-89